map of YNA home
YNA - Airport
Location
City:  Natashquan, Québec, Canada
Name:Natashquan Airport
ICAO:CYNA
IATA:YNA

Details
Type:Airport (Airfield)
Use:Public/Civil
Latitude:50°11'24"N (50.190000)
Longitude:61°47'20"W (-61.788888)
Elevation:39 ft (12 m)
Variation:19.37°W (WMM2015 magnetic declination)
0.18° annual change
Runways:1
Longest:4495 ft (1370 m), paved

Time
Time Zone:UTC-5 (DST-4)
Local Time:

Weather
METAR:CYNA 250122Z AUTO 23002KT 9SM SCT014 08/07 A2995 RMK SLP143
TAF:CYNA 250138Z 2502/2514 VRB03KT P6SM FEW100
TEMPO 2502/2509 BKN012
BECMG 2506/2508 06010KT
RMK FCST BASED ON AUTO OBS. NXT FCST BY 250800Z

Related Locations
Nearby:
Farthest:ALH: 11377 mi / 18310 km
Albany, WA, AU

Find:

   beyond  
but within

Other Information
Maps:
NOTAMs:
Links:
Sources:

  
  • flag of Canada
  • flag of Québec
  

Airport Diagram

Airport diagram for YNA

Airport diagram PDF

Sectional Chart

Flight Planning
at skyvector.com

Satellite Image

Google Maps Satellite view

 

Copyright © 2004-2018 Karl L. Swartz. All rights reserved.
The Great Circle Mapper name and logo are trademarks of the Great Circle Mapper.
All other trademarks mentioned herein belong to their respective owners.
Please see credits for attibutions and further copyright information.

  Follow gcmap on Facebook Follow gcmap on Twitter Follow gcmap on Google+ GCmap on LinkedIn

hCard Microformat

Geo Microformat